sensor_id;sensor_type;location;lat;lon;timestamp;pressure;altitude;pressure_sealevel;temperature;humidity
15272;BME280;7737;51.578;7.268;2024-01-30T00:02:22;102239.13;;;5.19;100.00
15272;BME280;7737;51.578;7.268;2024-01-30T00:04:49;102252.31;;;5.17;100.00
15272;BME280;7737;51.578;7.268;2024-01-30T00:07:17;102249.66;;;5.20;100.00
15272;BME280;7737;51.578;7.268;2024-01-30T00:09:46;102243.56;;;5.11;100.00
15272;BME280;7737;51.578;7.268;2024-01-30T00:12:12;102249.72;;;5.02;100.00
15272;BME280;7737;51.578;7.268;2024-01-30T00:14:41;102239.19;;;4.96;100.00
15272;BME280;7737;51.578;7.268;2024-01-30T00:17:08;102247.94;;;4.98;100.00
15272;BME280;7737;51.578;7.268;2024-01-30T00:19:34;102245.34;;;5.03;100.00
15272;BME280;7737;51.578;7.268;2024-01-30T00:22:00;102244.47;;;4.95;100.00
15272;BME280;7737;51.578;7.268;2024-01-30T00:24:28;102246.22;;;4.94;100.00
15272;BME280;7737;51.578;7.268;2024-01-30T00:26:54;102251.50;;;4.91;100.00
15272;BME280;7737;51.578;7.268;2024-01-30T00:29:21;102240.03;;;5.04;100.00
15272;BME280;7737;51.578;7.268;2024-01-30T00:31:48;102233.91;;;5.02;100.00
15272;BME280;7737;51.578;7.268;2024-01-30T00:34:14;102235.66;;;5.11;100.00
15272;BME280;7737;51.578;7.268;2024-01-30T00:36:41;102237.41;;;5.04;100.00
15272;BME280;7737;51.578;7.268;2024-01-30T00:39:07;102228.66;;;4.90;100.00
15272;BME280;7737;51.578;7.268;2024-01-30T00:41:36;102231.28;;;4.98;100.00
15272;BME280;7737;51.578;7.268;2024-01-30T00:44:02;102233.03;;;4.96;100.00
15272;BME280;7737;51.578;7.268;2024-01-30T00:46:29;102233.03;;;4.85;100.00
15272;BME280;7737;51.578;7.268;2024-01-30T00:48:55;102229.56;;;4.80;100.00
15272;BME280;7737;51.578;7.268;2024-01-30T00:51:22;102230.44;;;4.67;100.00
15272;BME280;7737;51.578;7.268;2024-01-30T00:53:48;102232.19;;;4.74;100.00
15272;BME280;7737;51.578;7.268;2024-01-30T00:56:15;102230.44;;;4.76;100.00
15272;BME280;7737;51.578;7.268;2024-01-30T00:58:44;102233.97;;;4.70;100.00
15272;BME280;7737;51.578;7.268;2024-01-30T01:01:11;102234.81;;;4.80;100.00
15272;BME280;7737;51.578;7.268;2024-01-30T01:03:38;102237.44;;;4.77;100.00
15272;BME280;7737;51.578;7.268;2024-01-30T01:06:06;102233.03;;;4.85;100.00
15272;BME280;7737;51.578;7.268;2024-01-30T01:08:32;102228.69;;;4.75;100.00
15272;BME280;7737;51.578;7.268;2024-01-30T01:10:59;102222.53;;;4.83;100.00
15272;BME280;7737;51.578;7.268;2024-01-30T01:13:25;102218.13;;;4.95;100.00
15272;BME280;7737;51.578;7.268;2024-01-30T01:15:53;102223.38;;;4.93;100.00
15272;BME280;7737;51.578;7.268;2024-01-30T01:18:20;102225.16;;;4.91;100.00
15272;BME280;7737;51.578;7.268;2024-01-30T01:20:46;102220.72;;;4.99;100.00
15272;BME280;7737;51.578;7.268;2024-01-30T01:23:13;102218.09;;;4.99;100.00
15272;BME280;7737;51.578;7.268;2024-01-30T01:25:39;102220.72;;;5.05;100.00
15272;BME280;7737;51.578;7.268;2024-01-30T01:28:06;102228.63;;;4.99;100.00
15272;BME280;7737;51.578;7.268;2024-01-30T01:30:32;102226.91;;;4.84;100.00
15272;BME280;7737;51.578;7.268;2024-01-30T01:33:00;102228.69;;;4.84;100.00
15272;BME280;7737;51.578;7.268;2024-01-30T01:35:27;102227.78;;;4.89;100.00
15272;BME280;7737;51.578;7.268;2024-01-30T01:37:54;102223.38;;;4.93;100.00
15272;BME280;7737;51.578;7.268;2024-01-30T01:40:22;102226.00;;;4.96;100.00
15272;BME280;7737;51.578;7.268;2024-01-30T01:42:49;102221.63;;;4.97;100.00
15272;BME280;7737;51.578;7.268;2024-01-30T01:45:16;102220.69;;;5.16;100.00
15272;BME280;7737;51.578;7.268;2024-01-30T01:47:42;102225.13;;;4.97;100.00
15272;BME280;7737;51.578;7.268;2024-01-30T01:50:12;102219.88;;;4.94;100.00
15272;BME280;7737;51.578;7.268;2024-01-30T01:52:40;102219.84;;;4.99;100.00
15272;BME280;7737;51.578;7.268;2024-01-30T01:55:07;102218.97;;;5.00;100.00
15272;BME280;7737;51.578;7.268;2024-01-30T01:57:34;102215.47;;;4.95;100.00
15272;BME280;7737;51.578;7.268;2024-01-30T02:00:01;102214.59;;;5.00;100.00
15272;BME280;7737;51.578;7.268;2024-01-30T02:02:30;102209.34;;;4.89;100.00
15272;BME280;7737;51.578;7.268;2024-01-30T02:04:57;102203.09;;;5.18;100.00
15272;BME280;7737;51.578;7.268;2024-01-30T02:07:25;102198.72;;;5.18;100.00
15272;BME280;7737;51.578;7.268;2024-01-30T02:09:51;102195.22;;;5.13;100.00
15272;BME280;7737;51.578;7.268;2024-01-30T02:12:18;102193.47;;;5.06;100.00
15272;BME280;7737;51.578;7.268;2024-01-30T02:14:44;102200.50;;;5.01;100.00
15272;BME280;7737;51.578;7.268;2024-01-30T02:17:11;102198.78;;;4.85;100.00
15272;BME280;7737;51.578;7.268;2024-01-30T02:19:38;102202.34;;;4.84;100.00
15272;BME280;7737;51.578;7.268;2024-01-30T02:22:07;102197.94;;;4.74;100.00
15272;BME280;7737;51.578;7.268;2024-01-30T02:24:34;102194.47;;;4.73;100.00
15272;BME280;7737;51.578;7.268;2024-01-30T02:27:00;102194.44;;;4.78;100.00
15272;BME280;7737;51.578;7.268;2024-01-30T02:29:27;102197.06;;;4.81;100.00
15272;BME280;7737;51.578;7.268;2024-01-30T02:31:53;102191.78;;;4.87;100.00
15272;BME280;7737;51.578;7.268;2024-01-30T02:34:20;102197.06;;;4.78;100.00
15272;BME280;7737;51.578;7.268;2024-01-30T02:36:46;102188.31;;;4.73;100.00
15272;BME280;7737;51.578;7.268;2024-01-30T02:39:14;102180.34;;;4.92;100.00
15272;BME280;7737;51.578;7.268;2024-01-30T02:41:41;102175.06;;;4.96;100.00
15272;BME280;7737;51.578;7.268;2024-01-30T02:44:07;102183.00;;;4.82;100.00
15272;BME280;7737;51.578;7.268;2024-01-30T02:46:33;102179.50;;;4.74;100.00
15272;BME280;7737;51.578;7.268;2024-01-30T02:49:00;102173.38;;;4.73;100.00
15272;BME280;7737;51.578;7.268;2024-01-30T02:51:27;102173.38;;;4.70;100.00
15272;BME280;7737;51.578;7.268;2024-01-30T02:53:53;102176.91;;;4.71;100.00
15272;BME280;7737;51.578;7.268;2024-01-30T02:56:21;102171.56;;;4.84;100.00
15272;BME280;7737;51.578;7.268;2024-01-30T02:58:48;102161.03;;;4.84;100.00
15272;BME280;7737;51.578;7.268;2024-01-30T03:01:14;102161.97;;;4.79;100.00
15272;BME280;7737;51.578;7.268;2024-01-30T03:03:41;102159.34;;;4.64;100.00
15272;BME280;7737;51.578;7.268;2024-01-30T03:06:08;102161.97;;;4.67;100.00
15272;BME280;7737;51.578;7.268;2024-01-30T03:08:35;102160.25;;;4.57;100.00
15272;BME280;7737;51.578;7.268;2024-01-30T03:11:01;102147.88;;;4.77;100.00
15272;BME280;7737;51.578;7.268;2024-01-30T03:13:29;102147.03;;;4.75;100.00
15272;BME280;7737;51.578;7.268;2024-01-30T03:15:56;102141.78;;;4.58;100.00
15272;BME280;7737;51.578;7.268;2024-01-30T03:18:22;102155.84;;;4.57;100.00
15272;BME280;7737;51.578;7.268;2024-01-30T03:20:49;102152.31;;;4.64;100.00
15272;BME280;7737;51.578;7.268;2024-01-30T03:23:15;102147.03;;;4.70;100.00
15272;BME280;7737;51.578;7.268;2024-01-30T03:25:42;102146.22;;;4.52;100.00
15272;BME280;7737;51.578;7.268;2024-01-30T03:28:08;102141.81;;;4.51;100.00
15272;BME280;7737;51.578;7.268;2024-01-30T03:30:36;102136.53;;;4.48;100.00
15272;BME280;7737;51.578;7.268;2024-01-30T03:33:03;102139.19;;;4.54;100.00
15272;BME280;7737;51.578;7.268;2024-01-30T03:35:29;102139.16;;;4.66;100.00
15272;BME280;7737;51.578;7.268;2024-01-30T03:37:56;102134.75;;;4.65;100.00
15272;BME280;7737;51.578;7.268;2024-01-30T03:40:22;102137.41;;;4.56;100.00
15272;BME280;7737;51.578;7.268;2024-01-30T03:42:48;102133.00;;;4.64;100.00
15272;BME280;7737;51.578;7.268;2024-01-30T03:45:15;102125.97;;;4.73;100.00
15272;BME280;7737;51.578;7.268;2024-01-30T03:47:46;102129.50;;;4.59;100.00
15272;BME280;7737;51.578;7.268;2024-01-30T03:50:12;102122.50;;;4.52;100.00
15272;BME280;7737;51.578;7.268;2024-01-30T03:52:39;102131.25;;;4.58;100.00
15272;BME280;7737;51.578;7.268;2024-01-30T03:55:05;102119.84;;;4.61;100.00
15272;BME280;7737;51.578;7.268;2024-01-30T03:57:32;102116.34;;;4.62;100.00
15272;BME280;7737;51.578;7.268;2024-01-30T03:59:58;102118.09;;;4.51;100.00
15272;BME280;7737;51.578;7.268;2024-01-30T04:02:25;102114.59;;;4.49;100.00
15272;BME280;7737;51.578;7.268;2024-01-30T04:04:52;102118.09;;;4.58;100.00
15272;BME280;7737;51.578;7.268;2024-01-30T04:07:19;102120.75;;;4.48;100.00
15272;BME280;7737;51.578;7.268;2024-01-30T04:09:45;102118.16;;;4.42;100.00
15272;BME280;7737;51.578;7.268;2024-01-30T04:12:12;102112.00;;;4.35;100.00
15272;BME280;7737;51.578;7.268;2024-01-30T04:14:39;102110.25;;;4.36;100.00
15272;BME280;7737;51.578;7.268;2024-01-30T04:17:05;102118.16;;;4.34;100.00
15272;BME280;7737;51.578;7.268;2024-01-30T04:19:32;102110.25;;;4.36;100.00
15272;BME280;7737;51.578;7.268;2024-01-30T04:21:59;102107.63;;;4.45;100.00
15272;BME280;7737;51.578;7.268;2024-01-30T04:24:26;102095.13;;;4.95;100.00
15272;BME280;7737;51.578;7.268;2024-01-30T04:26:53;102096.63;;;5.47;100.00
15272;BME280;7737;51.578;7.268;2024-01-30T04:29:19;102089.84;;;5.01;100.00
15272;BME280;7737;51.578;7.268;2024-01-30T04:31:47;102088.78;;;5.34;100.00
15272;BME280;7737;51.578;7.268;2024-01-30T04:34:14;102090.91;;;4.40;100.00
15272;BME280;7737;51.578;7.268;2024-01-30T04:36:43;102091.88;;;4.14;100.00
15272;BME280;7737;51.578;7.268;2024-01-30T04:39:11;102095.34;;;4.16;100.00
15272;BME280;7737;51.578;7.268;2024-01-30T04:41:38;102091.81;;;4.29;100.00
15272;BME280;7737;51.578;7.268;2024-01-30T04:44:05;102096.22;;;4.24;100.00
15272;BME280;7737;51.578;7.268;2024-01-30T04:46:32;102085.69;;;4.32;100.00
15272;BME280;7737;51.578;7.268;2024-01-30T04:48:59;102089.09;;;4.67;100.00
15272;BME280;7737;51.578;7.268;2024-01-30T04:51:26;102087.88;;;5.39;100.00
15272;BME280;7737;51.578;7.268;2024-01-30T04:53:52;102090.50;;;5.39;100.00
15272;BME280;7737;51.578;7.268;2024-01-30T04:56:20;102092.56;;;4.77;100.00
15272;BME280;7737;51.578;7.268;2024-01-30T04:58:46;102099.75;;;4.31;100.00
15272;BME280;7737;51.578;7.268;2024-01-30T05:01:14;102105.88;;;4.22;100.00
15272;BME280;7737;51.578;7.268;2024-01-30T05:03:41;102097.13;;;4.17;100.00
15272;BME280;7737;51.578;7.268;2024-01-30T05:06:08;102097.13;;;4.23;100.00
15272;BME280;7737;51.578;7.268;2024-01-30T05:08:34;102089.19;;;4.42;100.00
15272;BME280;7737;51.578;7.268;2024-01-30T05:11:01;102090.81;;;4.77;100.00
15272;BME280;7737;51.578;7.268;2024-01-30T05:13:30;102090.00;;;4.68;100.00
15272;BME280;7737;51.578;7.268;2024-01-30T05:15:56;102095.28;;;4.53;100.00
15272;BME280;7737;51.578;7.268;2024-01-30T05:18:23;102087.41;;;4.47;100.00
15272;BME280;7737;51.578;7.268;2024-01-30T05:20:50;102093.53;;;4.55;100.00
15272;BME280;7737;51.578;7.268;2024-01-30T05:23:16;102086.44;;;4.72;100.00
15272;BME280;7737;51.578;7.268;2024-01-30T05:25:42;102094.38;;;4.58;100.00
15272;BME280;7737;51.578;7.268;2024-01-30T05:28:08;102089.06;;;4.81;100.00
15272;BME280;7737;51.578;7.268;2024-01-30T05:30:36;102077.16;;;5.64;100.00
15272;BME280;7737;51.578;7.268;2024-01-30T05:33:03;102074.72;;;6.38;100.00
15272;BME280;7737;51.578;7.268;2024-01-30T05:35:30;102070.72;;;6.82;100.00
15272;BME280;7737;51.578;7.268;2024-01-30T05:37:56;102076.22;;;7.29;100.00
15272;BME280;7737;51.578;7.268;2024-01-30T05:40:23;102081.41;;;7.38;100.00
15272;BME280;7737;51.578;7.268;2024-01-30T05:42:49;102081.28;;;7.44;100.00
15272;BME280;7737;51.578;7.268;2024-01-30T05:45:16;102072.31;;;7.56;100.00
15272;BME280;7737;51.578;7.268;2024-01-30T05:47:43;102076.72;;;7.55;100.00
15272;BME280;7737;51.578;7.268;2024-01-30T05:50:10;102074.06;;;7.55;100.00
15272;BME280;7737;51.578;7.268;2024-01-30T05:52:36;102074.75;;;7.69;100.00
15272;BME280;7737;51.578;7.268;2024-01-30T05:55:03;102069.59;;;7.60;100.00
15272;BME280;7737;51.578;7.268;2024-01-30T05:57:30;102066.13;;;7.55;100.00
15272;BME280;7737;51.578;7.268;2024-01-30T05:59:57;102066.94;;;7.60;100.00
15272;BME280;7737;51.578;7.268;2024-01-30T06:02:23;102072.22;;;7.60;100.00
15272;BME280;7737;51.578;7.268;2024-01-30T06:04:52;102076.53;;;7.67;100.00
15272;BME280;7737;51.578;7.268;2024-01-30T06:07:19;102071.03;;;7.79;100.00
15272;BME280;7737;51.578;7.268;2024-01-30T06:09:45;102066.63;;;7.78;100.00
15272;BME280;7737;51.578;7.268;2024-01-30T06:12:12;102065.22;;;7.59;100.00
15272;BME280;7737;51.578;7.268;2024-01-30T06:14:38;102071.44;;;7.55;100.00
15272;BME280;7737;51.578;7.268;2024-01-30T06:17:05;102075.00;;;7.54;100.00
15272;BME280;7737;51.578;7.268;2024-01-30T06:19:32;102071.63;;;7.43;100.00
15272;BME280;7737;51.578;7.268;2024-01-30T06:22:00;102071.44;;;7.55;100.00
15272;BME280;7737;51.578;7.268;2024-01-30T06:24:26;102076.81;;;6.87;100.00
15272;BME280;7737;51.578;7.268;2024-01-30T06:26:53;102065.09;;;7.06;100.00
15272;BME280;7737;51.578;7.268;2024-01-30T06:29:19;102069.66;;;6.95;100.00
15272;BME280;7737;51.578;7.268;2024-01-30T06:31:46;102062.38;;;7.10;100.00
15272;BME280;7737;51.578;7.268;2024-01-30T06:34:12;102056.06;;;7.22;100.00
15272;BME280;7737;51.578;7.268;2024-01-30T06:36:39;102079.38;;;6.91;100.00
15272;BME280;7737;51.578;7.268;2024-01-30T06:39:07;102071.16;;;6.44;100.00
15272;BME280;7737;51.578;7.268;2024-01-30T06:41:34;102063.59;;;6.88;100.00
15272;BME280;7737;51.578;7.268;2024-01-30T06:44:02;102067.69;;;7.10;100.00
15272;BME280;7737;51.578;7.268;2024-01-30T06:46:28;102061.94;;;7.42;100.00
15272;BME280;7737;51.578;7.268;2024-01-30T06:48:55;102053.88;;;7.51;100.00
15272;BME280;7737;51.578;7.268;2024-01-30T06:51:21;102066.91;;;6.28;100.00
15272;BME280;7737;51.578;7.268;2024-01-30T06:53:48;102070.09;;;5.64;100.00
15272;BME280;7737;51.578;7.268;2024-01-30T06:56:15;102073.44;;;5.92;100.00
15272;BME280;7737;51.578;7.268;2024-01-30T06:58:46;102075.28;;;5.75;100.00
15272;BME280;7737;51.578;7.268;2024-01-30T07:01:12;102070.13;;;5.63;100.00
15272;BME280;7737;51.578;7.268;2024-01-30T07:03:39;102064.69;;;5.81;100.00
15272;BME280;7737;51.578;7.268;2024-01-30T07:06:05;102067.31;;;5.90;100.00
15272;BME280;7737;51.578;7.268;2024-01-30T07:08:32;102059.28;;;5.99;100.00
15272;BME280;7737;51.578;7.268;2024-01-30T07:10:58;102062.44;;;6.37;100.00
15272;BME280;7737;51.578;7.268;2024-01-30T07:13:27;102066.09;;;6.24;100.00
15272;BME280;7737;51.578;7.268;2024-01-30T07:15:54;102076.53;;;6.33;100.00
15272;BME280;7737;51.578;7.268;2024-01-30T07:18:20;102071.28;;;6.30;100.00
15272;BME280;7737;51.578;7.268;2024-01-30T07:20:47;102081.09;;;6.18;100.00
15272;BME280;7737;51.578;7.268;2024-01-30T07:23:14;102074.94;;;6.19;100.00
15272;BME280;7737;51.578;7.268;2024-01-30T07:25:43;102089.13;;;6.07;100.00
15272;BME280;7737;51.578;7.268;2024-01-30T07:28:10;102084.69;;;6.13;100.00
15272;BME280;7737;51.578;7.268;2024-01-30T07:30:38;102087.06;;;6.36;100.00
15272;BME280;7737;51.578;7.268;2024-01-30T07:33:05;102089.69;;;7.14;100.00
15272;BME280;7737;51.578;7.268;2024-01-30T07:35:31;102090.94;;;7.48;100.00
15272;BME280;7737;51.578;7.268;2024-01-30T07:37:58;102083.72;;;7.59;100.00
15272;BME280;7737;51.578;7.268;2024-01-30T07:40:24;102080.75;;;7.80;100.00
15272;BME280;7737;51.578;7.268;2024-01-30T07:42:50;102084.06;;;7.93;100.00
15272;BME280;7737;51.578;7.268;2024-01-30T07:45:17;102077.16;;;7.83;100.00
15272;BME280;7737;51.578;7.268;2024-01-30T07:47:48;102083.09;;;7.98;100.00
15272;BME280;7737;51.578;7.268;2024-01-30T07:50:15;102080.19;;;8.12;100.00
15272;BME280;7737;51.578;7.268;2024-01-30T07:52:41;102070.28;;;8.22;100.00
15272;BME280;7737;51.578;7.268;2024-01-30T07:55:08;102072.16;;;8.17;100.00
15272;BME280;7737;51.578;7.268;2024-01-30T07:57:34;102078.28;;;8.20;100.00
15272;BME280;7737;51.578;7.268;2024-01-30T08:00:01;102077.31;;;8.26;100.00
15272;BME280;7737;51.578;7.268;2024-01-30T08:02:29;102087.69;;;8.38;100.00
15272;BME280;7737;51.578;7.268;2024-01-30T08:05:03;102088.34;;;8.50;100.00
15272;BME280;7737;51.578;7.268;2024-01-30T08:07:29;102101.06;;;8.32;100.00
15272;BME280;7737;51.578;7.268;2024-01-30T08:09:56;102097.41;;;8.39;100.00
15272;BME280;7737;51.578;7.268;2024-01-30T08:12:22;102102.72;;;8.37;100.00
15272;BME280;7737;51.578;7.268;2024-01-30T08:14:49;102100.25;;;8.27;100.00
15272;BME280;7737;51.578;7.268;2024-01-30T08:17:15;102104.69;;;8.25;100.00
15272;BME280;7737;51.578;7.268;2024-01-30T08:19:42;102102.03;;;8.25;100.00
15272;BME280;7737;51.578;7.268;2024-01-30T08:22:09;102107.31;;;8.28;100.00
15272;BME280;7737;51.578;7.268;2024-01-30T08:24:36;102103.91;;;8.20;100.00
15272;BME280;7737;51.578;7.268;2024-01-30T08:27:03;102099.19;;;8.37;100.00
15272;BME280;7737;51.578;7.268;2024-01-30T08:29:30;102105.22;;;8.45;100.00
15272;BME280;7737;51.578;7.268;2024-01-30T08:31:56;102103.09;;;8.64;100.00
15272;BME280;7737;51.578;7.268;2024-01-30T08:34:24;102100.44;;;8.64;100.00
15272;BME280;7737;51.578;7.268;2024-01-30T08:36:50;102104.44;;;8.84;100.00
15272;BME280;7737;51.578;7.268;2024-01-30T08:39:18;102100.34;;;8.70;100.00
15272;BME280;7737;51.578;7.268;2024-01-30T08:41:45;102100.13;;;8.80;100.00
15272;BME280;7737;51.578;7.268;2024-01-30T08:44:11;102099.28;;;8.78;100.00
15272;BME280;7737;51.578;7.268;2024-01-30T08:46:38;102097.31;;;8.89;100.00
15272;BME280;7737;51.578;7.268;2024-01-30T08:49:04;102101.88;;;8.81;100.00
15272;BME280;7737;51.578;7.268;2024-01-30T08:51:31;102095.53;;;8.88;100.00
15272;BME280;7737;51.578;7.268;2024-01-30T08:53:57;102105.31;;;8.86;100.00
15272;BME280;7737;51.578;7.268;2024-01-30T08:56:25;102101.88;;;8.81;100.00
15272;BME280;7737;51.578;7.268;2024-01-30T08:58:52;102100.75;;;8.93;100.00
15272;BME280;7737;51.578;7.268;2024-01-30T09:01:18;102106.59;;;9.10;100.00
15272;BME280;7737;51.578;7.268;2024-01-30T09:03:45;102104.81;;;9.10;100.00
15272;BME280;7737;51.578;7.268;2024-01-30T09:06:12;102111.59;;;9.24;100.00
15272;BME280;7737;51.578;7.268;2024-01-30T09:08:39;102105.41;;;9.22;100.00
15272;BME280;7737;51.578;7.268;2024-01-30T09:11:08;102098.22;;;9.28;100.00
15272;BME280;7737;51.578;7.268;2024-01-30T09:13:36;102106.13;;;9.30;100.00
15272;BME280;7737;51.578;7.268;2024-01-30T09:16:03;102106.91;;;9.35;100.00
15272;BME280;7737;51.578;7.268;2024-01-30T09:18:30;102113.91;;;9.37;100.00
15272;BME280;7737;51.578;7.268;2024-01-30T09:20:56;102118.13;;;9.47;100.00
15272;BME280;7737;51.578;7.268;2024-01-30T09:23:24;102116.44;;;9.45;100.00
15272;BME280;7737;51.578;7.268;2024-01-30T09:25:50;102122.44;;;9.53;100.00
15272;BME280;7737;51.578;7.268;2024-01-30T09:28:17;102120.56;;;9.58;100.00
15272;BME280;7737;51.578;7.268;2024-01-30T09:30:45;102125.78;;;9.61;100.00
15272;BME280;7737;51.578;7.268;2024-01-30T09:33:11;102129.16;;;9.67;100.00
15272;BME280;7737;51.578;7.268;2024-01-30T09:35:38;102130.75;;;9.76;100.00
15272;BME280;7737;51.578;7.268;2024-01-30T09:38:04;102138.78;;;9.73;100.00
15272;BME280;7737;51.578;7.268;2024-01-30T09:40:31;102140.53;;;9.72;100.00
15272;BME280;7737;51.578;7.268;2024-01-30T09:42:58;102135.25;;;9.72;100.00
15272;BME280;7737;51.578;7.268;2024-01-30T09:45:26;102136.75;;;9.82;100.00
15272;BME280;7737;51.578;7.268;2024-01-30T09:47:54;102141.53;;;10.05;100.00
15272;BME280;7737;51.578;7.268;2024-01-30T09:50:20;102129.28;;;10.00;100.00
15272;BME280;7737;51.578;7.268;2024-01-30T09:52:47;102123.81;;;10.06;100.00
15272;BME280;7737;51.578;7.268;2024-01-30T09:55:15;102120.72;;;10.24;100.00
15272;BME280;7737;51.578;7.268;2024-01-30T09:57:42;102123.22;;;10.30;100.00
15272;BME280;7737;51.578;7.268;2024-01-30T10:00:09;102122.16;;;10.37;100.00
15272;BME280;7737;51.578;7.268;2024-01-30T10:02:36;102114.63;;;10.53;100.00
15272;BME280;7737;51.578;7.268;2024-01-30T10:05:05;102114.28;;;10.65;100.00
15272;BME280;7737;51.578;7.268;2024-01-30T10:07:32;102113.31;;;10.69;100.00
15272;BME280;7737;51.578;7.268;2024-01-30T10:09:59;102112.06;;;10.82;100.00
15272;BME280;7737;51.578;7.268;2024-01-30T10:12:26;102117.72;;;11.00;100.00
15272;BME280;7737;51.578;7.268;2024-01-30T10:14:52;102114.28;;;10.97;100.00
15272;BME280;7737;51.578;7.268;2024-01-30T10:17:19;102119.25;;;11.09;100.00
15272;BME280;7737;51.578;7.268;2024-01-30T10:19:46;102117.25;;;11.17;100.00
15272;BME280;7737;51.578;7.268;2024-01-30T10:22:14;102117.00;;;11.25;100.00
15272;BME280;7737;51.578;7.268;2024-01-30T10:24:41;102110.81;;;11.24;100.00
15272;BME280;7737;51.578;7.268;2024-01-30T10:27:08;102109.09;;;11.51;100.00
15272;BME280;7737;51.578;7.268;2024-01-30T10:29:34;102105.13;;;11.64;100.00
15272;BME280;7737;51.578;7.268;2024-01-30T10:32:02;102100.09;;;11.83;100.00
15272;BME280;7737;51.578;7.268;2024-01-30T10:34:29;102108.22;;;11.78;100.00
15272;BME280;7737;51.578;7.268;2024-01-30T10:36:59;102104.00;;;11.73;100.00
15272;BME280;7737;51.578;7.268;2024-01-30T10:39:29;102105.19;;;11.90;100.00
15272;BME280;7737;51.578;7.268;2024-01-30T10:42:03;102097.22;;;11.89;100.00
15272;BME280;7737;51.578;7.268;2024-01-30T10:44:36;102099.41;;;12.04;100.00
15272;BME280;7737;51.578;7.268;2024-01-30T10:47:06;102103.59;;;12.11;100.00
15272;BME280;7737;51.578;7.268;2024-01-30T10:49:39;102099.44;;;12.02;100.00
15272;BME280;7737;51.578;7.268;2024-01-30T10:52:05;102102.06;;;12.30;100.00
15272;BME280;7737;51.578;7.268;2024-01-30T10:54:36;102091.56;;;12.26;100.00
15272;BME280;7737;51.578;7.268;2024-01-30T10:57:04;102093.69;;;12.41;100.00
15272;BME280;7737;51.578;7.268;2024-01-30T10:59:32;102088.38;;;12.39;100.00
15272;BME280;7737;51.578;7.268;2024-01-30T11:01:59;102093.56;;;12.68;100.00
15272;BME280;7737;51.578;7.268;2024-01-30T11:04:26;102088.78;;;12.78;100.00
15272;BME280;7737;51.578;7.268;2024-01-30T11:06:53;102090.63;;;12.76;100.00
15272;BME280;7737;51.578;7.268;2024-01-30T11:09:20;102091.75;;;12.69;100.00
15272;BME280;7737;51.578;7.268;2024-01-30T11:11:49;102096.75;;;12.55;100.00
15272;BME280;7737;51.578;7.268;2024-01-30T11:14:16;102089.09;;;12.69;100.00
15272;BME280;7737;51.578;7.268;2024-01-30T11:16:43;102082.88;;;12.68;100.00
15272;BME280;7737;51.578;7.268;2024-01-30T11:19:11;102085.28;;;12.76;100.00
15272;BME280;7737;51.578;7.268;2024-01-30T11:21:41;102086.59;;;12.64;100.00
15272;BME280;7737;51.578;7.268;2024-01-30T11:24:08;102084.41;;;12.75;100.00
15272;BME280;7737;51.578;7.268;2024-01-30T11:26:34;102078.72;;;12.84;100.00
15272;BME280;7737;51.578;7.268;2024-01-30T11:29:07;102079.09;;;12.99;100.00
15272;BME280;7737;51.578;7.268;2024-01-30T11:31:33;102074.22;;;12.87;100.00
15272;BME280;7737;51.578;7.268;2024-01-30T11:33:59;102078.13;;;12.76;100.00
15272;BME280;7737;51.578;7.268;2024-01-30T11:36:27;102074.66;;;12.74;100.00
15272;BME280;7737;51.578;7.268;2024-01-30T11:38:54;102083.44;;;12.78;100.00
15272;BME280;7737;51.578;7.268;2024-01-30T11:41:22;102077.31;;;12.74;100.00
15272;BME280;7737;51.578;7.268;2024-01-30T11:43:53;102089.88;;;12.72;100.00
15272;BME280;7737;51.578;7.268;2024-01-30T11:46:22;102093.63;;;12.67;100.00
15272;BME280;7737;51.578;7.268;2024-01-30T11:48:52;102086.72;;;12.61;100.00
15272;BME280;7737;51.578;7.268;2024-01-30T11:51:18;102098.25;;;12.62;100.00
15272;BME280;7737;51.578;7.268;2024-01-30T11:53:49;102103.63;;;12.60;100.00
15272;BME280;7737;51.578;7.268;2024-01-30T11:56:17;102097.16;;;12.67;100.00
15272;BME280;7737;51.578;7.268;2024-01-30T11:58:44;102101.72;;;12.64;100.00
15272;BME280;7737;51.578;7.268;2024-01-30T12:01:10;102099.03;;;12.65;100.00
15272;BME280;7737;51.578;7.268;2024-01-30T12:03:38;102088.47;;;12.62;100.00
15272;BME280;7737;51.578;7.268;2024-01-30T12:06:05;102096.78;;;12.53;100.00
15272;BME280;7737;51.578;7.268;2024-01-30T12:08:31;102103.63;;;12.60;100.00
15272;BME280;7737;51.578;7.268;2024-01-30T12:10:58;102105.47;;;12.58;100.00
15272;BME280;7737;51.578;7.268;2024-01-30T12:13:26;102092.16;;;12.58;100.00
15272;BME280;7737;51.578;7.268;2024-01-30T12:15:53;102111.69;;;12.59;100.00
15272;BME280;7737;51.578;7.268;2024-01-30T12:18:19;102105.00;;;12.47;100.00
15272;BME280;7737;51.578;7.268;2024-01-30T12:20:58;102107.72;;;12.46;100.00
15272;BME280;7737;51.578;7.268;2024-01-30T12:23:25;102101.41;;;12.48;100.00
15272;BME280;7737;51.578;7.268;2024-01-30T12:25:51;102100.81;;;12.40;100.00
15272;BME280;7737;51.578;7.268;2024-01-30T12:28:18;102108.75;;;12.42;100.00
15272;BME280;7737;51.578;7.268;2024-01-30T12:30:45;102110.47;;;12.44;100.00
15272;BME280;7737;51.578;7.268;2024-01-30T12:33:16;102109.63;;;12.42;100.00
15272;BME280;7737;51.578;7.268;2024-01-30T12:35:45;102106.03;;;12.43;100.00
15272;BME280;7737;51.578;7.268;2024-01-30T12:38:13;102109.47;;;12.47;100.00
15272;BME280;7737;51.578;7.268;2024-01-30T12:40:40;102119.00;;;12.54;100.00
15272;BME280;7737;51.578;7.268;2024-01-30T12:43:07;102116.38;;;12.52;100.00
15272;BME280;7737;51.578;7.268;2024-01-30T12:45:33;102106.28;;;12.60;100.00
15272;BME280;7737;51.578;7.268;2024-01-30T12:48:00;102119.50;;;12.65;100.00
15272;BME280;7737;51.578;7.268;2024-01-30T12:50:26;102121.38;;;12.61;100.00
15272;BME280;7737;51.578;7.268;2024-01-30T12:52:53;102116.38;;;12.52;100.00
15272;BME280;7737;51.578;7.268;2024-01-30T12:55:21;102121.59;;;12.55;100.00
15272;BME280;7737;51.578;7.268;2024-01-30T12:57:47;102111.75;;;12.57;100.00